Time;durP1;ratioP1;P1;durP2;ratioP2;P2;SDS_P1;SDS_P2;PMS_P1;PMS_P2;Temp;Humidity;BMP_temperature;BMP_pressure;BME280_temperature;BME280_humidity;BME280_pressure;Samples;Min_cycle;Max_cycle;Signal;HPM_P1;HPM_P2
2021/06/09 00:00:41;;;;;;;14.18;11.25;;;;;;;17.48;85.22;99346.06;5145209;27;20051;-59
2021/06/09 00:03:07;;;;;;;11.43;10.25;;;;;;;17.47;85.30;99338.28;5136095;27;20087;-59
2021/06/09 00:05:33;;;;;;;11.65;10.35;;;;;;;17.47;85.28;99348.78;5108018;28;20027;-59
2021/06/09 00:07:58;;;;;;;13.18;9.82;;;;;;;17.46;84.78;99347.94;5104552;28;20312;-60
2021/06/09 00:10:24;;;;;;;11.05;9.82;;;;;;;17.51;84.46;99348.50;5104397;28;20024;-59
2021/06/09 00:12:50;;;;;;;12.23;11.10;;;;;;;17.42;85.08;99346.41;5104375;28;20118;-58
2021/06/09 00:15:17;;;;;;;13.00;11.80;;;;;;;17.37;84.96;99343.19;5104178;28;20027;-58
2021/06/09 00:17:43;;;;;;;12.80;11.70;;;;;;;17.19;86.23;99345.91;5104189;28;20023;-59
2021/06/09 00:20:13;;;;;;;11.95;10.75;;;;;;;17.00;85.31;99291.13;5104341;28;20028;-60
2021/06/09 00:22:39;;;;;;;11.23;10.20;;;;;;;17.18;85.77;99335.50;5108875;28;20035;-61
2021/06/09 00:25:13;;;;;;;11.95;10.85;;;;;;;17.25;85.74;99331.63;5124380;28;20039;-59
2021/06/09 00:27:39;;;;;;;11.95;10.82;;;;;;;17.28;85.49;99341.09;5124479;28;20272;-60
2021/06/09 00:30:06;;;;;;;11.65;10.48;;;;;;;17.31;85.29;99336.53;5124327;28;20096;-59
2021/06/09 00:32:33;;;;;;;12.10;10.77;;;;;;;17.14;85.32;99342.66;5124286;28;20034;-59
2021/06/09 00:34:59;;;;;;;11.98;10.75;;;;;;;17.23;85.54;99344.81;5124449;28;20032;-58
2021/06/09 00:37:25;;;;;;;11.65;10.65;;;;;;;17.18;85.62;99353.84;5124482;28;20030;-59
2021/06/09 00:39:51;;;;;;;13.55;11.38;;;;;;;17.09;85.59;99352.56;5124122;28;20236;-59
2021/06/09 00:42:21;;;;;;;12.23;11.13;;;;;;;16.88;86.88;99350.16;5130358;27;20027;-59
2021/06/09 00:44:47;;;;;;;11.75;10.60;;;;;;;17.06;85.75;99348.34;5144745;27;20350;-60
2021/06/09 00:47:20;;;;;;;11.80;10.80;;;;;;;17.13;85.58;99356.72;5144299;27;20031;-60
2021/06/09 00:49:46;;;;;;;12.45;10.73;;;;;;;16.98;86.00;99353.13;5144738;27;20079;-60
2021/06/09 00:52:11;;;;;;;12.77;10.65;;;;;;;17.03;85.72;99351.13;5124780;28;20035;-60
2021/06/09 00:54:37;;;;;;;11.93;10.75;;;;;;;16.69;86.20;99328.50;5124068;28;20039;-61
2021/06/09 00:57:04;;;;;;;12.57;11.38;;;;;;;16.88;86.41;99351.94;5124069;28;20023;-61
2021/06/09 00:59:32;;;;;;;13.77;12.57;;;;;;;16.52;86.59;99309.28;5124055;28;20327;-61
2021/06/09 01:01:58;;;;;;;14.77;13.27;;;;;;;16.75;86.66;99362.16;5123980;28;20051;-61
2021/06/09 01:04:24;;;;;;;12.70;11.48;;;;;;;16.80;87.25;99360.16;5104087;28;20217;-60
2021/06/09 01:06:50;;;;;;;15.75;12.30;;;;;;;16.86;86.61;99361.59;5090169;28;20023;-60
2021/06/09 01:09:16;;;;;;;14.88;13.48;;;;;;;16.82;86.57;99360.91;5123949;28;20087;-60
2021/06/09 01:11:41;;;;;;;14.52;13.13;;;;;;;16.62;86.94;99359.34;5123910;28;20216;-60
2021/06/09 01:14:07;;;;;;;15.45;13.95;;;;;;;16.83;86.79;99354.75;5124114;28;20051;-59
2021/06/09 01:16:33;;;;;;;15.20;13.77;;;;;;;16.94;86.05;99343.75;5124138;28;20027;-59
2021/06/09 01:18:59;;;;;;;13.75;12.45;;;;;;;17.06;85.30;99352.72;5123925;28;20273;-58
2021/06/09 01:21:29;;;;;;;16.15;14.35;;;;;;;16.97;85.83;99348.81;5123801;28;20027;-60
2021/06/09 01:23:56;;;;;;;18.33;15.52;;;;;;;16.97;86.00;99340.97;5123969;28;20026;-59
2021/06/09 01:26:25;;;;;;;16.70;15.07;;;;;;;17.01;85.44;99347.72;5123788;28;20035;-59
2021/06/09 01:28:54;;;;;;;18.10;16.13;;;;;;;16.45;86.00;99301.88;5124008;28;20313;-60
2021/06/09 01:31:22;;;;;;;17.33;15.63;;;;;;;16.76;87.03;99353.41;5124155;28;20034;-61
2021/06/09 01:33:48;;;;;;;18.27;16.48;;;;;;;16.83;86.39;99354.75;5123795;28;20193;-60
2021/06/09 01:36:14;;;;;;;18.27;16.48;;;;;;;16.86;86.41;99349.38;5105565;28;20031;-60
2021/06/09 01:38:53;;;;;;;18.65;16.27;;;;;;;16.85;86.55;99358.13;5123640;28;20038;-60
2021/06/09 01:41:22;;;;;;;19.08;17.08;;;;;;;16.64;87.89;99357.47;5123585;28;20043;-60
2021/06/09 01:43:49;;;;;;;19.35;17.30;;;;;;;16.74;87.08;99363.94;5123954;28;20024;-60
2021/06/09 01:46:16;;;;;;;19.63;17.42;;;;;;;16.30;87.70;99311.31;5123550;28;20221;-60
2021/06/09 01:48:42;;;;;;;19.05;17.05;;;;;;;16.58;88.31;99362.19;5123688;28;20034;-60
2021/06/09 01:51:08;;;;;;;19.45;17.00;;;;;;;16.68;87.93;99361.63;5123627;28;20321;-60
2021/06/09 01:53:34;;;;;;;19.45;17.40;;;;;;;16.73;87.90;99364.84;5123564;28;20023;-60
2021/06/09 01:56:01;;;;;;;24.70;18.90;;;;;;;16.84;87.11;99366.06;5123507;28;20028;-59
2021/06/09 01:58:27;;;;;;;20.23;18.02;;;;;;;16.83;86.82;99367.84;5125668;27;20051;-59
2021/06/09 02:00:54;;;;;;;19.83;17.33;;;;;;;16.89;87.09;99375.38;5130041;28;20141;-59
2021/06/09 02:03:20;;;;;;;21.15;18.17;;;;;;;16.82;87.07;99373.16;5117599;28;20020;-60
2021/06/09 02:05:46;;;;;;;22.55;20.25;;;;;;;16.68;87.75;99374.69;5127167;28;20023;-60
2021/06/09 02:08:14;;;;;;;22.13;18.92;;;;;;;16.56;88.17;99370.13;5127035;28;20140;-59
2021/06/09 02:10:41;;;;;;;19.77;17.05;;;;;;;16.65;88.17;99364.41;5127022;28;20039;-59
2021/06/09 02:13:13;;;;;;;19.80;16.40;;;;;;;16.37;87.59;99312.69;5127103;28;20086;-60
2021/06/09 02:15:39;;;;;;;;;;;;;;;16.60;87.89;99369.00;5138462;27;20027;-61
2021/06/09 02:18:11;;;;;;;19.13;15.73;;;;;;;16.62;87.90;99364.56;5147516;27;19903;-61
2021/06/09 02:20:50;;;;;;;19.67;17.45;;;;;;;16.30;88.16;99313.94;5147452;27;20030;-60
2021/06/09 02:23:19;;;;;;;17.40;15.60;;;;;;;16.52;88.40;99376.44;5147435;27;20019;-60
2021/06/09 02:25:48;;;;;;;18.83;16.73;;;;;;;16.51;88.65;99366.88;5147324;27;20031;-60
2021/06/09 02:28:14;;;;;;;18.50;16.58;;;;;;;16.65;88.07;99369.63;5147216;27;20072;-60
2021/06/09 02:30:41;;;;;;;16.17;14.57;;;;;;;16.47;87.88;99347.88;5147217;27;20023;-61
2021/06/09 02:33:08;;;;;;;17.67;13.60;;;;;;;16.68;87.22;99368.63;5147199;27;20019;-60
2021/06/09 02:35:38;;;;;;;14.90;13.32;;;;;;;16.64;87.85;99367.09;5147120;27;20374;-59
2021/06/09 02:38:05;;;;;;;15.93;13.73;;;;;;;16.55;88.19;99366.66;5141412;27;20034;-60
2021/06/09 02:40:32;;;;;;;15.32;12.75;;;;;;;16.49;88.43;99371.34;5142347;27;20095;-60
2021/06/09 02:42:58;;;;;;;18.05;12.98;;;;;;;16.63;87.62;99368.88;5130068;27;20034;-59
2021/06/09 02:45:24;;;;;;;14.77;11.88;;;;;;;16.66;88.13;99373.94;5126457;28;20020;-60
2021/06/09 02:47:54;;;;;;;13.75;12.35;;;;;;;16.46;88.02;99348.84;5126429;28;20039;-61
2021/06/09 02:50:23;;;;;;;14.63;13.13;;;;;;;16.50;88.60;99380.88;5126360;28;20043;-61
2021/06/09 02:53:02;;;;;;;14.02;12.75;;;;;;;16.30;88.31;99338.28;5126368;28;20027;-60
2021/06/09 02:55:43;;;;;;;13.65;11.73;;;;;;;16.43;88.76;99388.16;5126348;28;20032;-61
2021/06/09 02:58:22;;;;;;;13.90;12.45;;;;;;;16.46;89.36;99379.34;5126101;28;20051;-59
2021/06/09 03:01:09;;;;;;;13.55;12.15;;;;;;;16.51;88.72;99386.03;5126403;28;20027;-59
2021/06/09 03:03:59;;;;;;;14.25;12.15;;;;;;;16.29;89.12;99362.75;5112981;28;20028;-60
2021/06/09 03:06:52;;;;;;;16.35;12.05;;;;;;;16.57;88.59;99379.63;5105613;28;20070;-60
2021/06/09 03:09:33;;;;;;;12.70;11.00;;;;;;;16.33;87.94;99330.31;5105498;28;20091;-60
2021/06/09 03:12:10;;;;;;;12.45;11.27;;;;;;;16.53;88.09;99393.78;5105309;28;20028;-59
2021/06/09 03:17:30;;;;;;;15.75;11.63;;;;;;;16.53;87.83;99383.31;5105358;28;20221;-59
2021/06/09 03:20:05;;;;;;;12.38;10.63;;;;;;;16.68;87.55;99392.16;5105209;28;20035;-59
2021/06/09 03:22:38;;;;;;;15.57;12.10;;;;;;;16.66;87.33;99383.53;5105164;28;20317;-60
2021/06/09 03:25:04;;;;;;;12.73;11.25;;;;;;;16.66;88.10;99386.16;5105313;28;20039;-60
2021/06/09 03:27:53;;;;;;;12.75;11.25;;;;;;;16.77;87.38;99385.63;5105106;28;20024;-60
2021/06/09 03:30:22;;;;;;;14.23;11.57;;;;;;;16.65;87.67;99408.84;5105259;28;20032;-59
2021/06/09 03:32:58;;;;;;;17.02;12.23;;;;;;;16.66;87.92;99389.63;5105085;28;20221;-60
2021/06/09 03:35:42;;;;;;;12.73;11.52;;;;;;;16.73;87.62;99388.41;5102774;28;20274;-58
2021/06/09 03:38:12;;;;;;;14.43;11.48;;;;;;;16.52;86.65;99345.91;5102652;28;20031;-59
2021/06/09 03:40:41;;;;;;;13.15;11.80;;;;;;;16.94;87.03;99397.84;5122812;28;20035;-60
2021/06/09 03:43:09;;;;;;;12.90;11.57;;;;;;;16.63;86.82;99344.50;5122759;28;20040;-60
2021/06/09 03:45:43;;;;;;;14.00;12.25;;;;;;;16.87;86.61;99407.75;5102545;28;20032;-60
2021/06/09 03:48:10;;;;;;;15.45;12.25;;;;;;;16.77;86.81;99389.06;5102117;28;20035;-59
2021/06/09 03:50:38;;;;;;;15.52;12.23;;;;;;;16.70;87.13;99383.34;5104287;28;20027;-59
2021/06/09 03:53:06;;;;;;;14.82;12.18;;;;;;;16.52;87.26;99338.06;5118560;28;20340;-59
2021/06/09 03:55:38;;;;;;;14.13;12.60;;;;;;;16.60;87.70;99382.09;5102186;28;20035;-60
2021/06/09 03:58:08;;;;;;;13.07;11.77;;;;;;;16.79;87.27;99383.75;5103159;28;20193;-61
2021/06/09 04:00:35;;;;;;;14.50;11.93;;;;;;;16.71;87.25;99385.00;5103085;28;20348;-60
2021/06/09 04:03:03;;;;;;;12.82;11.48;;;;;;;16.41;87.01;99329.09;5110926;28;20103;-60
2021/06/09 04:05:30;;;;;;;14.38;11.30;;;;;;;16.63;87.29;99381.97;5123417;28;20098;-61
2021/06/09 04:07:58;;;;;;;13.98;12.45;;;;;;;16.82;86.48;99389.69;5122132;28;20256;-60
2021/06/09 04:10:25;;;;;;;14.10;12.60;;;;;;;16.96;85.92;99383.78;5123940;28;20027;-60
2021/06/09 04:12:51;;;;;;;12.68;11.38;;;;;;;17.07;85.71;99377.94;5124762;28;20028;-59
2021/06/09 04:15:18;;;;;;;12.15;10.95;;;;;;;17.15;85.72;99380.19;5106638;28;20019;-60
2021/06/09 04:17:47;;;;;;;15.52;11.43;;;;;;;17.14;85.24;99375.84;5124421;28;20263;-60
2021/06/09 04:20:13;;;;;;;12.98;11.57;;;;;;;17.17;84.91;99379.16;5124247;28;20051;-60
2021/06/09 04:22:39;;;;;;;14.68;11.35;;;;;;;17.23;85.32;99380.63;5123662;28;20039;-60
2021/06/09 04:25:08;;;;;;;12.43;11.20;;;;;;;17.25;85.05;99387.44;5124314;28;20083;-59
2021/06/09 04:27:43;;;;;;;14.65;11.30;;;;;;;17.21;84.51;99385.06;5124263;28;20030;-60
2021/06/09 04:30:10;;;;;;;12.05;9.90;;;;;;;17.28;84.65;99381.19;5124387;28;20205;-58
2021/06/09 04:32:55;;;;;;;12.05;10.68;;;;;;;17.22;84.30;99378.91;5105929;28;20355;-60
2021/06/09 04:35:24;;;;;;;15.65;11.30;;;;;;;16.98;84.32;99333.97;5124435;28;20030;-59
2021/06/09 04:37:50;;;;;;;12.48;11.02;;;;;;;17.16;84.65;99380.09;5106366;28;20020;-60
2021/06/09 04:40:24;;;;;;;12.00;10.60;;;;;;;17.16;84.93;99392.31;5124031;28;20039;-60
2021/06/09 04:42:53;;;;;;;13.00;11.10;;;;;;;17.35;84.34;99385.16;5103807;28;20051;-60
2021/06/09 04:45:20;;;;;;;13.02;10.52;;;;;;;17.37;83.94;99383.31;5103779;28;20032;-60
2021/06/09 04:47:47;;;;;;;12.90;10.40;;;;;;;17.45;83.82;99388.13;5103901;28;20031;-60
2021/06/09 04:50:18;;;;;;;12.00;10.80;;;;;;;17.45;83.88;99380.28;5103714;28;20028;-60
2021/06/09 04:52:44;;;;;;;13.90;10.67;;;;;;;17.33;83.94;99383.56;5103838;28;20020;-59
2021/06/09 04:55:11;;;;;;;12.80;10.52;;;;;;;17.29;84.33;99390.75;5103661;28;20030;-60
2021/06/09 04:57:37;;;;;;;12.93;10.85;;;;;;;17.50;84.07;99387.88;5103391;28;20027;-59
2021/06/09 05:00:06;;;;;;;14.63;10.93;;;;;;;17.27;83.76;99342.00;5103616;28;20031;-59
2021/06/09 05:02:32;;;;;;;11.80;10.40;;;;;;;17.60;83.86;99389.91;5107734;28;20035;-60
2021/06/09 05:04:58;;;;;;;12.05;10.40;;;;;;;17.63;83.62;99385.41;5124079;28;20030;-60
2021/06/09 05:07:23;;;;;;;12.43;10.93;;;;;;;17.72;82.66;99393.59;5105823;28;20035;-61
2021/06/09 05:09:49;;;;;;;12.68;11.23;;;;;;;17.72;82.55;99385.75;5123901;28;20016;-60
2021/06/09 05:12:29;;;;;;;13.38;11.18;;;;;;;17.73;82.14;99360.44;5123789;28;20031;-60
2021/06/09 05:15:08;;;;;;;19.13;12.02;;;;;;;17.75;82.40;99392.59;5123928;28;20027;-60
2021/06/09 05:17:48;;;;;;;13.90;11.60;;;;;;;17.76;82.96;99376.78;5123942;28;20031;-59
2021/06/09 05:20:27;;;;;;;15.40;11.63;;;;;;;17.86;82.49;99398.09;5123703;28;20220;-60
2021/06/09 05:23:05;;;;;;;13.20;10.93;;;;;;;17.53;82.17;99351.03;5123663;28;20024;-60
2021/06/09 05:25:33;;;;;;;13.65;11.45;;;;;;;17.86;82.47;99392.84;5123766;28;20020;-60
2021/06/09 05:27:59;;;;;;;11.15;10.02;;;;;;;17.90;81.89;99397.00;5123650;28;20068;-60
2021/06/09 05:30:26;;;;;;;11.80;10.60;;;;;;;17.90;82.06;99393.50;5123458;28;20259;-60
2021/06/09 05:32:55;;;;;;;11.13;10.00;;;;;;;17.91;81.16;99395.22;5123732;28;20027;-59
2021/06/09 05:35:22;;;;;;;14.43;11.05;;;;;;;17.87;82.10;99396.28;5127194;28;20031;-59
2021/06/09 05:37:49;;;;;;;12.45;11.10;;;;;;;17.98;81.37;99396.56;5127704;28;20029;-60
2021/06/09 05:40:16;;;;;;;16.00;11.93;;;;;;;18.02;81.21;99400.69;5127679;28;20035;-59
2021/06/09 05:42:44;;;;;;;15.32;12.25;;;;;;;18.03;82.25;99402.41;5127768;28;20099;-60
2021/06/09 05:45:10;;;;;;;14.27;11.95;;;;;;;18.06;81.63;99398.78;5127564;28;20031;-60
2021/06/09 05:47:45;;;;;;;12.18;11.07;;;;;;;17.98;81.37;99398.34;5127482;28;20024;-60
2021/06/09 05:50:13;;;;;;;13.32;11.80;;;;;;;17.91;80.64;99390.84;5127560;28;20212;-60
2021/06/09 05:52:39;;;;;;;13.80;12.07;;;;;;;18.03;81.12;99396.31;5127546;28;20057;-60
2021/06/09 05:55:05;;;;;;;15.93;11.98;;;;;;;17.94;81.04;99398.53;5127431;28;20023;-59
2021/06/09 05:57:31;;;;;;;18.38;11.55;;;;;;;18.02;81.67;99408.56;5127300;28;20090;-60
2021/06/09 05:59:57;;;;;;;14.68;11.02;;;;;;;17.97;81.80;99399.28;5127094;28;20016;-60
2021/06/09 06:02:28;;;;;;;14.25;10.50;;;;;;;18.03;81.39;99402.41;5123904;28;20238;-60
2021/06/09 06:04:55;;;;;;;13.70;10.25;;;;;;;18.09;81.26;99404.66;5106712;28;20095;-62
2021/06/09 06:07:21;;;;;;;11.13;8.77;;;;;;;18.11;80.32;99400.19;5088650;28;20369;-61
2021/06/09 06:09:47;;;;;;;11.75;9.73;;;;;;;18.07;80.88;99403.91;5106552;28;20024;-59
2021/06/09 06:12:13;;;;;;;11.48;10.38;;;;;;;18.14;80.29;99411.41;5106698;28;20062;-60
2021/06/09 06:14:39;;;;;;;62.28;39.53;;;;;;;18.06;79.83;99410.09;5106559;28;20023;-60
2021/06/09 06:17:08;;;;;;;11.75;10.18;;;;;;;17.74;79.91;99369.94;5088367;28;20031;-61
2021/06/09 06:19:38;;;;;;;13.80;10.90;;;;;;;17.96;80.38;99410.69;5106259;28;20028;-61
2021/06/09 06:22:10;;;;;;;10.82;9.80;;;;;;;17.95;80.93;99412.47;5106377;28;20043;-63
2021/06/09 06:24:44;;;;;;;11.70;10.50;;;;;;;17.83;80.78;99415.72;5106225;28;20040;-60
2021/06/09 06:27:12;;;;;;;12.48;10.10;;;;;;;18.02;81.07;99412.97;5110223;28;20024;-59
2021/06/09 06:29:39;;;;;;;13.05;10.35;;;;;;;17.92;80.77;99394.31;5126540;28;20082;-60
2021/06/09 06:32:06;;;;;;;14.73;10.75;;;;;;;17.85;80.82;99380.66;5126403;28;20032;-60
2021/06/09 06:34:36;;;;;;;11.85;10.63;;;;;;;17.46;80.89;99375.88;5126444;28;20019;-61
2021/06/09 06:37:03;;;;;;;11.57;10.32;;;;;;;17.98;80.84;99417.53;5126748;28;20396;-61
2021/06/09 06:39:29;;;;;;;13.45;10.35;;;;;;;18.01;81.33;99427.00;5125901;28;20039;-59
2021/06/09 06:41:55;;;;;;;12.15;10.20;;;;;;;18.11;80.71;99422.91;5131615;27;20061;-60
2021/06/09 06:44:21;;;;;;;12.00;10.77;;;;;;;17.72;81.50;99422.41;5146915;27;20022;-59
2021/06/09 06:46:49;;;;;;;13.48;10.57;;;;;;;17.83;81.16;99413.13;5146144;27;20023;-59
2021/06/09 06:49:17;;;;;;;14.60;10.93;;;;;;;17.97;81.09;99428.09;5146887;27;20035;-62
2021/06/09 06:51:45;;;;;;;12.52;10.48;;;;;;;18.03;81.37;99444.34;5128666;27;20227;-60
2021/06/09 06:54:11;;;;;;;13.43;10.65;;;;;;;17.80;81.96;99437.72;5146538;27;20031;-60
2021/06/09 06:56:38;;;;;;;13.82;10.40;;;;;;;17.82;81.71;99433.25;5128342;27;20212;-60
2021/06/09 06:59:04;;;;;;;11.82;9.18;;;;;;;17.92;81.13;99425.75;5146826;27;20031;-60
2021/06/09 07:01:36;;;;;;;14.55;10.35;;;;;;;17.71;81.38;99394.53;5146743;27;20027;-60
2021/06/09 07:04:03;;;;;;;12.25;9.10;;;;;;;18.07;81.09;99431.88;5129578;27;20031;-60
2021/06/09 07:06:29;;;;;;;11.98;10.65;;;;;;;18.14;81.18;99443.72;5125951;28;20088;-60
2021/06/09 07:08:56;;;;;;;12.13;10.02;;;;;;;18.21;81.25;99446.84;5125919;28;20027;-59
2021/06/09 07:11:22;;;;;;;11.93;9.60;;;;;;;18.14;82.27;99448.13;5125848;28;20034;-60
2021/06/09 07:13:49;;;;;;;10.68;8.82;;;;;;;17.79;82.74;99411.63;5125887;28;20027;-59
2021/06/09 07:16:16;;;;;;;10.25;9.35;;;;;;;17.91;82.64;99460.72;5125701;28;20327;-60
2021/06/09 07:18:45;;;;;;;11.10;8.73;;;;;;;17.74;82.35;99459.88;5125331;28;20253;-60
2021/06/09 07:21:17;;;;;;;11.88;8.90;;;;;;;17.86;83.06;99460.13;5125652;28;20031;-60
2021/06/09 07:23:44;;;;;;;14.05;10.35;;;;;;;18.05;82.65;99463.41;5125726;28;20031;-60
2021/06/09 07:26:11;;;;;;;13.15;10.43;;;;;;;18.08;82.79;99460.63;5125641;28;20099;-60
2021/06/09 07:28:50;;;;;;;10.98;8.80;;;;;;;18.05;82.20;99468.66;5125496;28;20072;-60
2021/06/09 07:31:21;;;;;;;10.88;8.25;;;;;;;18.06;82.15;99462.50;5136384;27;20027;-60
2021/06/09 07:33:47;;;;;;;8.48;7.57;;;;;;;18.10;82.17;99458.78;5117816;28;20023;-60
2021/06/09 07:36:17;;;;;;;9.10;8.00;;;;;;;17.86;81.28;99441.78;5125219;28;20031;-60
2021/06/09 07:38:48;;;;;;;13.07;9.73;;;;;;;18.10;81.66;99466.66;5125116;28;20047;-60
2021/06/09 07:41:15;;;;;;;8.85;7.68;;;;;;;18.16;80.80;99464.63;5125371;28;20027;-59
2021/06/09 07:43:44;;;;;;;8.75;7.30;;;;;;;18.23;80.72;99461.56;5125453;27;20072;-59
2021/06/09 07:46:15;;;;;;;8.63;7.72;;;;;;;18.23;81.12;99453.69;5125242;28;20380;-59
2021/06/09 07:48:45;;;;;;;8.38;7.57;;;;;;;18.45;81.08;99462.94;5135926;27;20015;-59
2021/06/09 07:51:13;;;;;;;10.82;7.53;;;;;;;18.54;80.38;99459.78;5138581;27;20032;-59
2021/06/09 07:53:40;;;;;;;9.23;7.65;;;;;;;18.59;79.90;99464.75;5112507;27;20031;-59
2021/06/09 07:56:08;;;;;;;15.43;8.77;;;;;;;18.50;79.83;99466.16;5109360;28;20023;-59
2021/06/09 07:58:34;;;;;;;9.35;8.20;;;;;;;18.62;78.62;99470.66;5111898;27;20061;-59
2021/06/09 08:01:02;;;;;;;10.73;7.88;;;;;;;18.79;78.38;99464.44;5093830;28;20331;-59
2021/06/09 08:03:31;;;;;;;11.52;7.93;;;;;;;18.80;77.60;99467.91;5114747;27;20078;-59
2021/06/09 08:05:58;;;;;;;9.13;7.97;;;;;;;18.72;77.19;99473.59;5114083;27;20020;-59
2021/06/09 08:08:27;;;;;;;8.55;7.63;;;;;;;18.86;77.43;99469.34;5112270;27;20217;-60
2021/06/09 08:10:53;;;;;;;7.80;7.10;;;;;;;18.85;76.49;99475.50;5115603;27;20016;-60
2021/06/09 08:13:19;;;;;;;8.35;7.22;;;;;;;18.93;76.92;99471.53;5127987;27;20182;-60
2021/06/09 08:15:46;;;;;;;12.02;7.93;;;;;;;18.82;76.49;99466.03;5135165;27;20283;-60
2021/06/09 08:18:12;;;;;;;9.15;7.72;;;;;;;19.11;76.78;99461.72;5124283;28;20031;-60
2021/06/09 08:21:10;;;;;;;10.18;7.65;;;;;;;19.38;76.67;99453.09;5143272;27;20026;-60
2021/06/09 08:23:36;;;;;;;10.50;7.05;;;;;;;19.63;75.16;99454.16;5135281;27;20043;-60
2021/06/09 08:26:04;;;;;;;7.53;6.82;;;;;;;19.62;75.53;99453.34;5144654;27;20123;-60
2021/06/09 08:28:33;;;;;;;9.27;7.70;;;;;;;19.59;75.56;99456.13;5143464;27;20027;-60
2021/06/09 08:31:00;;;;;;;10.90;7.85;;;;;;;19.64;74.71;99442.72;5124521;27;20052;-60
2021/06/09 08:33:26;;;;;;;8.90;7.95;;;;;;;19.76;74.42;99462.97;5124499;28;20038;-60
2021/06/09 08:35:52;;;;;;;11.05;8.20;;;;;;;19.73;74.12;99462.31;5124439;28;20027;-59
2021/06/09 08:38:18;;;;;;;9.63;7.90;;;;;;;19.81;73.53;99462.72;5108138;27;20030;-59
2021/06/09 08:40:43;;;;;;;7.70;6.45;;;;;;;19.87;73.46;99461.50;5138822;27;20040;-60
2021/06/09 08:43:10;;;;;;;8.50;7.05;;;;;;;19.95;72.92;99461.81;5124432;28;20069;-60
2021/06/09 08:45:36;;;;;;;9.73;7.32;;;;;;;19.82;72.88;99460.00;5124170;28;20023;-60
2021/06/09 08:48:03;;;;;;;8.50;7.20;;;;;;;19.89;73.32;99463.06;5138187;27;20092;-59
2021/06/09 08:50:29;;;;;;;10.80;6.95;;;;;;;19.97;73.81;99462.59;5144066;27;20035;-60
2021/06/09 08:52:57;;;;;;;8.75;7.70;;;;;;;19.53;72.80;99408.41;5139723;27;20051;-60
2021/06/09 08:55:23;;;;;;;8.32;7.20;;;;;;;19.78;72.84;99458.47;5128614;27;20030;-61
2021/06/09 08:57:49;;;;;;;9.48;6.07;;;;;;;19.96;72.93;99453.00;5115886;28;20023;-60
2021/06/09 09:00:17;;;;;;;7.55;6.85;;;;;;;20.22;73.16;99455.72;5123932;28;20032;-60
2021/06/09 09:02:44;;;;;;;9.82;7.55;;;;;;;20.32;72.17;99454.16;5123986;28;20046;-60
2021/06/09 09:05:11;;;;;;;10.50;6.93;;;;;;;20.01;70.15;99461.44;5137642;28;20197;-61
2021/06/09 09:07:37;;;;;;;8.43;6.45;;;;;;;20.33;69.75;99451.44;5140505;28;20023;-61
2021/06/09 09:10:05;;;;;;;8.07;6.35;;;;;;;19.93;68.81;99416.41;5127378;27;20075;-61
2021/06/09 09:12:34;;;;;;;7.03;6.35;;;;;;;20.14;69.80;99437.84;5123173;27;20041;-61
2021/06/09 09:15:01;;;;;;;7.50;6.80;;;;;;;20.23;70.45;99450.34;5113250;28;20262;-60
2021/06/09 09:17:27;;;;;;;7.78;6.53;;;;;;;20.52;70.63;99451.06;5119006;27;20016;-60
2021/06/09 09:20:05;;;;;;;9.00;6.57;;;;;;;20.58;71.07;99443.69;5115090;28;20204;-60
2021/06/09 09:22:34;;;;;;;10.68;6.15;;;;;;;20.53;71.37;99430.84;5144633;27;20054;-60
2021/06/09 09:25:10;;;;;;;8.18;6.60;;;;;;;20.26;68.74;99415.97;5129874;27;20216;-61
2021/06/09 09:27:36;;;;;;;9.10;5.97;;;;;;;20.46;70.06;99445.38;5102720;27;20032;-61
2021/06/09 09:30:07;;;;;;;7.30;5.85;;;;;;;20.49;68.95;99453.06;5115331;27;20368;-59
2021/06/09 09:32:33;;;;;;;7.13;6.18;;;;;;;20.51;69.38;99451.19;5147570;27;20023;-59
2021/06/09 09:35:07;;;;;;;7.65;5.97;;;;;;;20.11;69.96;99404.69;5147968;27;20023;-59
2021/06/09 09:37:33;;;;;;;6.72;5.93;;;;;;;20.47;70.25;99452.31;5129820;27;20076;-59
2021/06/09 09:40:17;;;;;;;6.03;5.40;;;;;;;20.43;70.09;99443.78;5127813;28;20114;-59
2021/06/09 09:42:48;;;;;;;7.22;5.53;;;;;;;20.39;69.99;99441.47;5127878;27;20066;-59
2021/06/09 09:45:15;;;;;;;7.75;5.75;;;;;;;20.11;70.21;99445.88;5134256;27;20029;-59
2021/06/09 09:47:41;;;;;;;8.93;5.55;;;;;;;20.25;70.12;99442.38;5144861;27;20026;-59
2021/06/09 09:50:07;;;;;;;8.73;6.95;;;;;;;20.28;70.73;99444.78;5141949;27;20231;-59
2021/06/09 09:52:48;;;;;;;7.90;6.03;;;;;;;20.28;70.58;99444.78;5145781;27;20062;-60
2021/06/09 09:55:14;;;;;;;7.72;5.38;;;;;;;20.08;70.16;99436.44;5127390;27;20220;-60
2021/06/09 09:57:40;;;;;;;6.40;5.72;;;;;;;20.09;70.72;99438.09;5135765;27;20035;-59
2021/06/09 10:00:07;;;;;;;10.63;5.22;;;;;;;20.23;70.98;99433.75;5127294;28;20028;-59
2021/06/09 10:02:33;;;;;;;8.98;6.05;;;;;;;20.32;69.86;99433.13;5125737;27;20032;-60
2021/06/09 10:05:12;;;;;;;6.13;5.40;;;;;;;20.31;69.77;99399.91;5133940;27;20383;-59
2021/06/09 10:07:38;;;;;;;9.57;6.40;;;;;;;20.45;70.59;99426.13;5145444;27;20216;-60
2021/06/09 10:10:06;;;;;;;8.02;5.75;;;;;;;20.22;69.64;99398.69;5146883;27;20035;-60
2021/06/09 10:12:32;;;;;;;8.02;6.03;;;;;;;20.46;69.98;99440.13;5137586;27;20444;-60
2021/06/09 10:14:59;;;;;;;7.28;6.05;;;;;;;20.39;70.14;99434.41;5142344;27;20035;-59
2021/06/09 10:17:26;;;;;;;6.13;5.35;;;;;;;19.96;70.80;99434.59;5142969;27;20047;-60
2021/06/09 10:20:00;;;;;;;6.65;5.60;;;;;;;20.31;70.53;99429.66;5138545;27;20063;-60
2021/06/09 10:22:33;;;;;;;8.43;5.93;;;;;;;20.26;69.56;99376.50;5137635;27;20050;-60
2021/06/09 10:25:19;;;;;;;9.05;5.43;;;;;;;20.75;67.96;99418.91;5140166;27;20035;-61
2021/06/09 10:27:49;;;;;;;9.98;5.85;;;;;;;20.86;68.49;99419.88;5127973;27;20173;-61
2021/06/09 10:30:20;;;;;;;6.25;5.60;;;;;;;20.47;68.56;99426.84;5138018;27;20035;-60
2021/06/09 10:32:50;;;;;;;6.93;5.70;;;;;;;20.44;69.14;99418.34;5146359;27;20027;-62
2021/06/09 10:35:22;;;;;;;9.00;6.13;;;;;;;20.43;69.30;99432.44;5138502;27;20034;-61
2021/06/09 10:37:49;;;;;;;7.15;5.65;;;;;;;20.36;69.57;99418.84;5135511;27;20023;-61
2021/06/09 10:40:26;;;;;;;9.65;5.70;;;;;;;20.10;69.38;99387.22;5125686;27;20047;-59
2021/06/09 10:42:56;;;;;;;8.03;5.93;;;;;;;19.99;69.93;99373.94;5119051;27;20270;-60
2021/06/09 10:45:22;;;;;;;7.22;5.40;;;;;;;20.16;70.21;99413.09;5117495;27;20436;-60
2021/06/09 10:47:57;;;;;;;10.70;6.20;;;;;;;20.30;70.41;99416.63;5119075;27;20084;-61
2021/06/09 10:50:23;;;;;;;7.88;5.32;;;;;;;20.16;70.50;99426.25;5117041;27;20073;-61
2021/06/09 10:52:49;;;;;;;9.50;5.63;;;;;;;20.20;70.46;99421.63;5124789;27;20254;-61
2021/06/09 10:55:15;;;;;;;8.40;5.63;;;;;;;19.99;70.60;99414.22;5125695;27;20031;-61
2021/06/09 10:57:41;;;;;;;11.98;6.07;;;;;;;19.86;70.78;99430.88;5136939;27;20027;-61
2021/06/09 11:00:09;;;;;;;9.65;5.90;;;;;;;19.75;70.74;99418.38;5146042;27;20023;-60
2021/06/09 11:02:35;;;;;;;10.23;5.88;;;;;;;19.75;70.53;99421.88;5133117;27;20099;-60
2021/06/09 11:05:07;;;;;;;8.75;6.15;;;;;;;19.62;70.62;99371.03;5131480;27;20023;-60
2021/06/09 11:07:43;;;;;;;;;;;;;;;19.82;70.52;99420.56;5146429;27;20046;-60
2021/06/09 11:10:12;;;;;;;9.98;5.93;;;;;;;19.93;70.28;99413.78;5146400;27;19910;-60
2021/06/09 11:12:41;;;;;;;9.95;6.13;;;;;;;19.95;70.59;99414.50;5135698;27;20211;-59
2021/06/09 11:15:11;;;;;;;7.70;6.25;;;;;;;19.62;71.18;99413.06;5126106;28;20030;-60
2021/06/09 11:17:50;;;;;;;6.45;5.82;;;;;;;19.51;71.25;99384.00;5144379;27;20252;-60
2021/06/09 11:20:20;;;;;;;9.25;5.95;;;;;;;19.57;71.54;99420.41;5145685;27;20209;-61
2021/06/09 11:22:47;;;;;;;8.32;6.18;;;;;;;19.70;71.65;99417.84;5134220;27;20266;-61
2021/06/09 11:25:14;;;;;;;7.93;6.15;;;;;;;19.25;72.16;99365.47;5141176;27;20031;-60
2021/06/09 11:28:17;;;;;;;8.15;5.78;;;;;;;19.28;72.47;99389.78;5145624;27;20103;-60
2021/06/09 11:31:03;;;;;;;12.60;6.50;;;;;;;19.45;72.93;99412.38;5088626;27;20051;-60
2021/06/09 11:33:44;;;;;;;12.15;6.32;;;;;;;19.34;73.05;99398.19;5145500;27;20026;-60
2021/06/09 11:36:13;;;;;;;7.83;5.67;;;;;;;19.34;73.45;99429.72;5138816;27;20321;-62